createdAt,value
2018-05-07T00:00:06.998Z,2.40
2018-05-07T00:02:34.493Z,2.00
2018-05-07T00:05:02.396Z,1.77
2018-05-07T00:07:29.888Z,1.70
2018-05-07T00:09:57.416Z,2.17
2018-05-07T00:12:24.920Z,1.97
2018-05-07T00:14:52.427Z,1.80
2018-05-07T00:17:19.915Z,1.70
2018-05-07T00:19:47.848Z,2.10
2018-05-07T00:22:15.337Z,2.40
2018-05-07T00:24:42.851Z,2.43
2018-05-07T00:27:10.755Z,2.20
2018-05-07T00:29:38.275Z,1.93
2018-05-07T00:32:05.776Z,2.20
2018-05-07T00:34:33.764Z,1.67
2018-05-07T00:37:01.668Z,1.50
2018-05-07T00:39:29.167Z,1.77
2018-05-07T00:41:56.684Z,1.80
2018-05-07T00:44:24.172Z,1.77
2018-05-07T00:46:51.683Z,2.07
2018-05-07T00:49:19.185Z,2.13
2018-05-07T00:51:47.096Z,1.87
2018-05-07T00:54:14.593Z,1.80
2018-05-07T00:56:42.094Z,1.97
2018-05-07T00:59:09.588Z,2.07
2018-05-07T01:01:37.492Z,1.60
2018-05-07T01:04:04.984Z,2.20
2018-05-07T01:06:32.491Z,1.67
2018-05-07T01:08:59.980Z,2.10
2018-05-07T01:11:27.896Z,1.90
2018-05-07T01:13:55.386Z,1.70
2018-05-07T01:16:22.908Z,2.00
2018-05-07T01:18:50.404Z,2.10
2018-05-07T01:21:17.916Z,2.00
2018-05-07T01:23:45.416Z,1.97
2018-05-07T01:26:13.331Z,1.80
2018-05-07T01:28:40.828Z,1.87
2018-05-07T01:31:08.339Z,2.13
2018-05-07T01:33:36.224Z,1.87
2018-05-07T01:36:03.744Z,2.00
2018-05-07T01:38:31.239Z,1.83
2018-05-07T01:40:58.752Z,1.63
2018-05-07T01:43:26.256Z,1.87
2018-05-07T01:45:53.780Z,2.13
2018-05-07T01:48:21.367Z,1.73
2018-05-07T01:50:48.893Z,1.90
2018-05-07T01:53:16.392Z,1.80
2018-05-07T01:55:43.988Z,2.27
2018-05-07T01:58:11.499Z,1.70
2018-05-07T02:00:39.004Z,1.77
2018-05-07T02:03:06.903Z,1.77
2018-05-07T02:05:34.395Z,1.90
2018-05-07T02:08:01.907Z,1.83
2018-05-07T02:10:29.395Z,2.03
2018-05-07T02:12:57.302Z,2.20
2018-05-07T02:15:24.804Z,2.00
2018-05-07T02:17:52.324Z,2.33
2018-05-07T02:20:19.815Z,1.67
2018-05-07T02:22:47.330Z,2.10
2018-05-07T02:25:14.827Z,1.80
2018-05-07T02:27:42.735Z,2.00
2018-05-07T02:30:10.232Z,2.13
2018-05-07T02:32:37.744Z,2.10
2018-05-07T02:35:05.635Z,1.77
2018-05-07T02:37:33.543Z,1.77
2018-05-07T02:40:01.040Z,2.10
2018-05-07T02:42:28.551Z,1.90
2018-05-07T02:44:56.445Z,2.00
2018-05-07T02:47:23.960Z,2.00
2018-05-07T02:49:51.452Z,1.90
2018-05-07T02:52:18.989Z,1.90
2018-05-07T02:54:46.491Z,2.37
2018-05-07T02:57:14.005Z,1.80
2018-05-07T02:59:41.551Z,2.27
2018-05-07T03:02:09.456Z,2.23
2018-05-07T03:04:36.955Z,1.87
2018-05-07T03:07:04.468Z,2.00
2018-05-07T03:09:31.963Z,2.57
2018-05-07T03:11:59.476Z,2.20
2018-05-07T03:14:26.987Z,2.30
2018-05-07T03:16:54.894Z,1.70
2018-05-07T03:19:22.387Z,1.50
2018-05-07T03:21:49.875Z,1.63
2018-05-07T03:24:17.386Z,2.20
2018-05-07T03:26:45.283Z,2.00
2018-05-07T03:29:12.791Z,2.07
2018-05-07T03:31:40.288Z,1.70
2018-05-07T03:34:07.806Z,2.23
2018-05-07T03:36:35.305Z,1.73
2018-05-07T03:39:02.823Z,1.60
2018-05-07T03:41:30.716Z,2.20
2018-05-07T03:43:58.224Z,2.30
2018-05-07T03:46:25.718Z,2.20
2018-05-07T03:48:53.240Z,2.30
2018-05-07T03:51:20.731Z,1.87
2018-05-07T03:53:48.237Z,1.60
2018-05-07T03:56:15.727Z,1.93
2018-05-07T03:58:43.631Z,2.17
2018-05-07T04:01:11.128Z,2.33
2018-05-07T04:03:38.619Z,1.50
2018-05-07T04:06:06.137Z,2.07
2018-05-07T04:08:33.627Z,1.77
2018-05-07T04:11:01.140Z,1.57
2018-05-07T04:13:28.635Z,1.90
2018-05-07T04:15:56.539Z,1.80
2018-05-07T04:18:36.000Z,2.80
2018-05-07T04:21:10.469Z,1.60
2018-05-07T04:23:49.879Z,1.57
2018-05-07T04:26:17.387Z,1.67
2018-05-07T04:28:44.895Z,2.27
2018-05-07T04:31:12.807Z,2.27
2018-05-07T04:33:41.087Z,1.60
2018-05-07T04:36:08.528Z,1.70
2018-05-07T04:38:36.433Z,1.97
2018-05-07T04:41:03.928Z,1.87
2018-05-07T04:43:31.431Z,2.03
2018-05-07T04:45:58.923Z,2.20
2018-05-07T04:48:26.838Z,1.77
2018-05-07T04:50:54.331Z,1.80
2018-05-07T04:53:21.947Z,2.70
2018-05-07T04:55:49.836Z,1.87
2018-05-07T04:58:17.756Z,1.80
2018-05-07T05:00:45.260Z,2.00
2018-05-07T05:03:12.756Z,1.67
2018-05-07T05:05:40.736Z,1.77
2018-05-07T05:08:08.627Z,1.63
2018-05-07T05:10:36.140Z,1.60
2018-05-07T05:13:03.636Z,2.20
2018-05-07T05:15:31.143Z,1.60
2018-05-07T05:17:58.651Z,1.70
2018-05-07T05:20:26.159Z,2.00
2018-05-07T05:22:53.651Z,1.70
2018-05-07T05:25:21.168Z,1.80
2018-05-07T05:27:48.668Z,1.80
2018-05-07T05:30:16.180Z,1.90
2018-05-07T05:32:43.676Z,1.63
2018-05-07T05:35:11.183Z,2.10
2018-05-07T05:37:38.675Z,2.07
2018-05-07T05:40:06.191Z,1.87
2018-05-07T05:42:33.692Z,1.90
2018-05-07T05:45:01.208Z,2.03
2018-05-07T05:47:28.705Z,1.90
2018-05-07T05:49:56.298Z,2.10
2018-05-07T05:52:24.123Z,1.93
2018-05-07T05:54:51.637Z,1.87
2018-05-07T05:57:19.131Z,1.50
2018-05-07T05:59:46.644Z,1.90
2018-05-07T06:02:14.183Z,2.30
2018-05-07T06:04:42.101Z,2.30
2018-05-07T06:07:09.595Z,2.13
2018-05-07T06:09:37.103Z,1.90
2018-05-07T06:12:04.591Z,2.00
2018-05-07T06:14:32.617Z,2.03
2018-05-07T06:17:00.026Z,2.17
2018-05-07T06:19:27.520Z,2.23
2018-05-07T06:21:55.024Z,1.90
2018-05-07T06:24:22.525Z,2.03
2018-05-07T06:26:50.039Z,1.93
2018-05-07T06:29:17.533Z,2.33
2018-05-07T06:31:45.064Z,1.60
2018-05-07T06:34:12.944Z,2.23
2018-05-07T06:36:40.915Z,2.40
2018-05-07T06:39:08.795Z,2.20
2018-05-07T06:41:36.702Z,2.23
2018-05-07T06:44:04.255Z,1.73
2018-05-07T06:46:31.758Z,1.97
2018-05-07T06:48:59.266Z,2.23
2018-05-07T06:51:26.771Z,2.27
2018-05-07T06:53:54.661Z,1.90
2018-05-07T06:56:22.167Z,1.87
2018-05-07T06:58:49.661Z,2.50
2018-05-07T07:01:17.172Z,2.10
2018-05-07T07:03:44.660Z,2.07
2018-05-07T07:06:12.167Z,2.40
2018-05-07T07:08:39.703Z,2.07
2018-05-07T07:11:07.171Z,2.00
2018-05-07T07:13:34.659Z,2.33
2018-05-07T07:16:02.163Z,2.47
2018-05-07T07:18:29.653Z,2.07
2018-05-07T07:20:57.559Z,2.00
2018-05-07T07:23:25.103Z,2.07
2018-05-07T07:25:53.003Z,2.40
2018-05-07T07:28:20.588Z,2.00
2018-05-07T07:30:48.021Z,2.10
2018-05-07T07:33:15.908Z,2.27
2018-05-07T07:35:43.816Z,2.20
2018-05-07T07:38:11.312Z,2.23
2018-05-07T07:40:38.834Z,2.20
2018-05-07T07:43:06.715Z,2.60
2018-05-07T07:45:34.599Z,1.77
2018-05-07T07:48:02.516Z,2.20
2018-05-07T07:50:30.007Z,2.00
2018-05-07T07:52:57.515Z,2.60
2018-05-07T07:55:25.416Z,2.10
2018-05-07T07:57:52.919Z,1.97
2018-05-07T08:00:20.426Z,2.40
2018-05-07T08:02:48.006Z,2.13
2018-05-07T08:05:15.887Z,1.90
2018-05-07T08:07:43.792Z,2.60
2018-05-07T08:10:11.288Z,2.30
2018-05-07T08:12:38.796Z,1.80
2018-05-07T08:15:06.283Z,2.07
2018-05-07T08:17:34.179Z,2.37
2018-05-07T08:20:01.689Z,1.93
2018-05-07T08:22:29.192Z,2.07
2018-05-07T08:24:56.676Z,2.10
2018-05-07T08:27:24.573Z,2.50
2018-05-07T08:29:52.072Z,2.20
2018-05-07T08:32:19.579Z,2.20
2018-05-07T08:34:47.064Z,2.63
2018-05-07T08:37:14.969Z,2.07
2018-05-07T08:39:42.484Z,2.60
2018-05-07T08:42:09.992Z,1.90
2018-05-07T08:44:37.872Z,2.47
2018-05-07T08:47:05.767Z,2.40
2018-05-07T08:49:33.323Z,2.13
2018-05-07T08:52:01.227Z,2.40
2018-05-07T08:54:28.715Z,1.90
2018-05-07T08:56:56.231Z,2.60
2018-05-07T08:59:23.724Z,2.20
2018-05-07T09:01:51.624Z,2.10
2018-05-07T09:04:19.119Z,2.43
2018-05-07T09:06:46.619Z,2.23
2018-05-07T09:09:14.106Z,1.97
2018-05-07T09:11:42.003Z,1.87
2018-05-07T09:14:09.509Z,2.43
2018-05-07T09:16:37.000Z,1.60
2018-05-07T09:19:04.504Z,2.10
2018-05-07T09:21:32.397Z,2.27
2018-05-07T09:23:59.902Z,2.03
2018-05-07T09:26:27.390Z,2.30
2018-05-07T09:28:54.923Z,2.20
2018-05-07T09:31:22.455Z,2.40
2018-05-07T09:33:49.962Z,1.97
2018-05-07T09:36:17.503Z,2.30
2018-05-07T09:38:45.492Z,2.20
2018-05-07T09:41:13.374Z,2.57
2018-05-07T09:43:41.276Z,2.30
2018-05-07T09:46:08.768Z,2.80
2018-05-07T09:48:36.271Z,2.33
2018-05-07T09:51:03.755Z,2.30
2018-05-07T09:53:31.656Z,2.20
2018-05-07T09:55:59.148Z,2.17
2018-05-07T09:58:26.680Z,2.20
2018-05-07T10:00:54.584Z,2.37
2018-05-07T10:03:22.095Z,2.10
2018-05-07T10:05:49.592Z,2.10
2018-05-07T10:08:17.107Z,2.13
2018-05-07T10:10:44.604Z,2.00
2018-05-07T10:13:12.144Z,2.30
2018-05-07T10:15:39.647Z,2.20
2018-05-07T10:18:07.156Z,2.40
2018-05-07T10:20:35.051Z,2.43
2018-05-07T10:23:02.568Z,2.40
2018-05-07T10:25:30.059Z,2.67
2018-05-07T10:27:57.567Z,2.70
2018-05-07T10:30:25.059Z,2.30
2018-05-07T10:32:52.590Z,2.73
2018-05-07T10:35:20.488Z,2.30
2018-05-07T10:37:48.008Z,2.17
2018-05-07T10:40:15.511Z,2.50
2018-05-07T10:42:43.448Z,2.33
2018-05-07T10:45:10.971Z,2.40
2018-05-07T10:47:38.479Z,2.00
2018-05-07T10:50:06.009Z,2.37
2018-05-07T10:52:33.507Z,2.60
2018-05-07T10:55:01.016Z,2.17
2018-05-07T10:57:28.505Z,2.17
2018-05-07T10:59:56.011Z,2.20
2018-05-07T11:02:23.504Z,2.23
2018-05-07T11:04:51.012Z,2.60
2018-05-07T11:07:18.591Z,2.20
2018-05-07T11:09:46.748Z,2.23
2018-05-07T11:12:14.251Z,2.67
2018-05-07T11:14:41.760Z,2.27
2018-05-07T11:17:09.248Z,2.10
2018-05-07T11:19:36.752Z,2.30
2018-05-07T11:22:04.245Z,2.57
2018-05-07T11:24:32.144Z,2.07
2018-05-07T11:26:59.635Z,2.10
2018-05-07T11:29:27.167Z,2.63
2018-05-07T11:31:55.171Z,2.10
2018-05-07T11:34:22.676Z,2.33
2018-05-07T11:36:50.168Z,2.30
2018-05-07T11:39:17.673Z,2.27
2018-05-07T11:41:45.596Z,2.60
2018-05-07T11:44:13.111Z,2.53
2018-05-07T11:46:40.599Z,2.47
2018-05-07T11:49:08.516Z,2.30
2018-05-07T11:51:36.004Z,2.23
2018-05-07T11:54:03.508Z,2.37
2018-05-07T11:56:31.392Z,2.37
2018-05-07T11:58:59.291Z,2.07
2018-05-07T12:01:26.779Z,2.03
2018-05-07T12:03:54.288Z,2.37
2018-05-07T12:06:21.795Z,1.83
2018-05-07T12:08:49.676Z,1.97
2018-05-07T12:11:17.212Z,2.23
2018-05-07T12:13:44.692Z,1.87
2018-05-07T12:16:12.195Z,2.10
2018-05-07T12:18:39.679Z,2.03
2018-05-07T12:21:07.185Z,2.67
2018-05-07T12:23:34.675Z,2.43
2018-05-07T12:26:02.180Z,2.00
2018-05-07T12:28:29.668Z,2.10
2018-05-07T12:30:57.205Z,1.90
2018-05-07T12:33:25.088Z,1.87
2018-05-07T12:35:52.996Z,2.13
2018-05-07T12:38:20.495Z,1.73
2018-05-07T12:40:47.999Z,2.17
2018-05-07T12:43:15.879Z,2.03
2018-05-07T12:45:43.780Z,1.87
2018-05-07T12:48:11.273Z,2.03
2018-05-07T12:50:38.779Z,1.90
2018-05-07T12:53:06.267Z,1.80
2018-05-07T12:55:33.780Z,2.10
2018-05-07T12:58:01.320Z,2.00
2018-05-07T13:00:29.216Z,1.93
2018-05-07T13:02:56.703Z,2.27
2018-05-07T13:05:24.235Z,1.73
2018-05-07T13:07:52.119Z,1.77
2018-05-07T13:10:20.124Z,1.50
2018-05-07T13:12:47.615Z,2.13
2018-05-07T13:15:15.124Z,1.90
2018-05-07T13:17:42.715Z,1.93
2018-05-07T13:20:10.614Z,2.30
2018-05-07T13:22:38.101Z,1.90
2018-05-07T13:25:05.635Z,1.97
2018-05-07T13:27:33.123Z,1.87
2018-05-07T13:30:01.056Z,1.67
2018-05-07T13:32:28.560Z,1.80
2018-05-07T13:34:56.460Z,1.80
2018-05-07T13:37:23.971Z,1.60
2018-05-07T13:39:51.458Z,2.07
2018-05-07T13:42:18.967Z,1.70
2018-05-07T13:44:46.860Z,1.70
2018-05-07T13:47:14.371Z,1.97
2018-05-07T13:49:41.859Z,1.83
2018-05-07T13:52:09.370Z,1.30
2018-05-07T13:54:36.860Z,2.10
2018-05-07T13:57:04.367Z,1.73
2018-05-07T13:59:31.864Z,1.70
2018-05-07T14:01:59.772Z,1.70
2018-05-07T14:04:27.320Z,1.80
2018-05-07T14:06:55.235Z,1.50
2018-05-07T14:09:22.724Z,2.53
2018-05-07T14:11:50.231Z,1.77
2018-05-07T14:14:18.342Z,1.60
2018-05-07T14:16:45.882Z,1.80
2018-05-07T14:19:13.381Z,1.30
2018-05-07T14:21:40.883Z,1.80
2018-05-07T14:24:08.368Z,1.70
2018-05-07T14:26:36.187Z,1.50
2018-05-07T14:29:04.071Z,1.60
2018-05-07T14:31:31.980Z,1.90
2018-05-07T14:33:59.467Z,1.97
2018-05-07T14:36:26.971Z,1.80
2018-05-07T14:38:54.555Z,1.13
2018-05-07T14:41:22.456Z,1.60
2018-05-07T14:43:49.943Z,1.67
2018-05-07T14:46:17.448Z,1.53
2018-05-07T14:48:44.935Z,1.40
2018-05-07T14:51:12.439Z,1.50
2018-05-07T14:53:40.215Z,1.40
2018-05-07T14:56:07.770Z,1.47
2018-05-07T14:58:35.678Z,2.40
2018-05-07T15:01:03.232Z,1.63
2018-05-07T15:03:31.140Z,1.50
2018-05-07T15:05:58.631Z,1.10
2018-05-07T15:08:26.140Z,1.30
2018-05-07T15:10:54.063Z,1.90
2018-05-07T15:13:21.612Z,1.53
2018-05-07T15:15:49.207Z,1.50
2018-05-07T15:18:16.711Z,1.20
2018-05-07T15:20:44.204Z,1.40
2018-05-07T15:23:11.709Z,1.63
2018-05-07T15:25:39.195Z,1.17
2018-05-07T15:28:06.704Z,1.40
2018-05-07T15:30:34.317Z,1.50
2018-05-07T15:33:01.839Z,1.40
2018-05-07T15:35:29.327Z,1.27
2018-05-07T15:37:56.834Z,1.33
2018-05-07T15:40:24.324Z,1.13
2018-05-07T15:42:51.851Z,1.57
2018-05-07T15:45:19.355Z,1.60
2018-05-07T15:47:46.873Z,1.63
2018-05-07T15:50:14.377Z,1.37
2018-05-07T15:52:42.344Z,1.37
2018-05-07T15:55:10.245Z,1.90
2018-05-07T15:57:37.791Z,1.60
2018-05-07T16:00:05.367Z,1.40
2018-05-07T16:02:33.316Z,1.67
2018-05-07T16:05:00.776Z,1.30
2018-05-07T16:07:29.323Z,1.60
2018-05-07T16:09:57.282Z,1.60
2018-05-07T16:12:24.796Z,1.40
2018-05-07T16:14:52.450Z,1.70
2018-05-07T16:17:20.351Z,1.70
2018-05-07T16:19:47.840Z,1.30
2018-05-07T16:22:15.499Z,1.50
2018-05-07T16:24:43.032Z,1.47
2018-05-07T16:27:10.615Z,1.77
2018-05-07T16:29:38.519Z,1.60
2018-05-07T16:32:06.069Z,1.43
2018-05-07T16:34:34.050Z,1.87
2018-05-07T16:37:02.028Z,1.70
2018-05-07T16:39:29.933Z,1.53
2018-05-07T16:41:57.423Z,1.97
2018-05-07T16:44:24.931Z,1.47
2018-05-07T16:46:52.528Z,1.70
2018-05-07T16:49:20.423Z,1.40
2018-05-07T16:51:47.923Z,2.13
2018-05-07T16:54:15.459Z,2.10
2018-05-07T16:56:43.349Z,1.70
2018-05-07T16:59:10.851Z,1.63
2018-05-07T17:01:38.343Z,1.60
2018-05-07T17:04:05.845Z,1.60
2018-05-07T17:06:33.732Z,1.87
2018-05-07T17:09:01.241Z,2.17
2018-05-07T17:11:28.732Z,1.80
2018-05-07T17:13:56.239Z,1.97
2018-05-07T17:16:24.128Z,1.60
2018-05-07T17:18:51.640Z,1.50
2018-05-07T17:21:19.136Z,1.90
2018-05-07T17:23:46.647Z,2.53
2018-05-07T17:26:14.131Z,1.80
2018-05-07T17:28:41.661Z,1.90
2018-05-07T17:31:09.151Z,2.27
2018-05-07T17:33:37.068Z,2.20
2018-05-07T17:36:04.560Z,2.10
2018-05-07T17:38:32.063Z,1.90
2018-05-07T17:40:59.947Z,2.30
2018-05-07T17:43:27.852Z,2.00
2018-05-07T17:46:07.100Z,2.83
2018-05-07T17:48:46.431Z,2.50
2018-05-07T17:51:14.316Z,1.93
2018-05-07T17:53:41.808Z,2.03
2018-05-07T17:56:09.313Z,2.40
2018-05-07T17:58:36.804Z,1.73
2018-05-07T18:01:04.307Z,1.90
2018-05-07T18:03:31.804Z,2.17
2018-05-07T18:05:59.312Z,2.20
2018-05-07T18:08:26.804Z,1.97
2018-05-07T18:10:54.737Z,2.23
2018-05-07T18:13:22.208Z,1.90
2018-05-07T18:15:49.718Z,2.83
2018-05-07T18:18:17.604Z,1.90
2018-05-07T18:20:45.500Z,2.30
2018-05-07T18:23:12.996Z,2.83
2018-05-07T18:25:40.499Z,3.60
2018-05-07T18:28:07.996Z,3.00
2018-05-07T18:30:35.895Z,3.00
2018-05-07T18:33:03.392Z,3.73
2018-05-07T18:35:30.919Z,3.13
2018-05-07T18:37:58.988Z,3.00
2018-05-07T18:40:26.803Z,4.23
2018-05-07T18:42:54.447Z,3.20
2018-05-07T18:45:22.403Z,3.20
2018-05-07T18:47:49.896Z,3.80
2018-05-07T18:50:17.480Z,2.57
2018-05-07T18:52:45.363Z,2.97
2018-05-07T18:55:13.296Z,2.83
2018-05-07T18:57:40.787Z,3.17
2018-05-07T19:00:08.416Z,2.93
2018-05-07T19:02:35.915Z,2.80
2018-05-07T19:05:03.520Z,3.20
2018-05-07T19:07:31.403Z,3.63
2018-05-07T19:09:59.303Z,2.70
2018-05-07T19:12:26.791Z,3.00
2018-05-07T19:14:54.300Z,3.30
2018-05-07T19:17:21.791Z,2.80
2018-05-07T19:19:49.810Z,5.30
2018-05-07T19:22:17.220Z,4.20
2018-05-07T19:24:44.712Z,4.90
2018-05-07T19:27:12.607Z,3.57
2018-05-07T19:29:40.576Z,2.97
2018-05-07T19:32:08.480Z,4.67
2018-05-07T19:34:35.967Z,5.50
2018-05-07T19:37:03.484Z,4.07
2018-05-07T19:39:30.980Z,3.57
2018-05-07T19:41:58.883Z,3.20
2018-05-07T19:44:26.373Z,2.87
2018-05-07T19:46:53.900Z,2.60
2018-05-07T19:49:21.811Z,3.20
2018-05-07T19:51:49.307Z,3.23
2018-05-07T19:54:16.801Z,2.97
2018-05-07T19:56:44.312Z,3.00
2018-05-07T19:59:11.805Z,3.20
2018-05-07T20:01:39.331Z,3.70
2018-05-07T20:04:07.223Z,2.80
2018-05-07T20:06:34.735Z,2.93
2018-05-07T20:09:02.224Z,2.60
2018-05-07T20:11:29.744Z,2.80
2018-05-07T20:13:57.231Z,2.57
2018-05-07T20:16:24.739Z,3.07
2018-05-07T20:18:52.340Z,2.33
2018-05-07T20:21:20.269Z,3.30
2018-05-07T20:23:47.765Z,2.77
2018-05-07T20:26:15.276Z,2.30
2018-05-07T20:28:42.795Z,2.47
2018-05-07T20:31:10.323Z,2.10
2018-05-07T20:33:37.807Z,2.17
2018-05-07T20:36:05.315Z,2.17
2018-05-07T20:38:32.802Z,1.77
2018-05-07T20:41:00.308Z,2.20
2018-05-07T20:43:27.804Z,2.20
2018-05-07T20:45:55.314Z,2.30
2018-05-07T20:48:22.815Z,2.17
2018-05-07T20:50:50.326Z,1.73
2018-05-07T20:53:17.832Z,1.70
2018-05-07T20:55:45.351Z,2.17
2018-05-07T20:58:12.887Z,1.80
2018-05-07T21:00:40.770Z,1.87
2018-05-07T21:03:08.671Z,2.00
2018-05-07T21:05:36.156Z,2.10
2018-05-07T21:08:03.700Z,2.70
2018-05-07T21:10:31.256Z,1.83
2018-05-07T21:12:59.158Z,2.47
2018-05-07T21:15:26.652Z,2.10
2018-05-07T21:17:54.172Z,2.20
2018-05-07T21:20:21.659Z,2.50
2018-05-07T21:22:49.558Z,2.47
2018-05-07T21:25:17.046Z,2.17
2018-05-07T21:27:44.555Z,2.90
2018-05-07T21:30:12.143Z,2.13
2018-05-07T21:32:40.127Z,2.13
2018-05-07T21:35:08.016Z,1.83
2018-05-07T21:37:35.924Z,2.10
2018-05-07T21:40:03.425Z,2.30
2018-05-07T21:42:31.027Z,2.00
2018-05-07T21:44:58.525Z,1.93
2018-05-07T21:47:26.036Z,1.97
2018-05-07T21:49:53.528Z,2.00
2018-05-07T21:52:21.121Z,2.67
2018-05-07T21:54:49.008Z,1.73
2018-05-07T21:57:16.904Z,2.33
2018-05-07T21:59:44.399Z,2.97
2018-05-07T22:02:11.921Z,2.20
2018-05-07T22:04:39.823Z,2.40
2018-05-07T22:07:07.337Z,2.43
2018-05-07T22:09:34.823Z,2.07
2018-05-07T22:12:02.340Z,2.50
2018-05-07T22:14:29.829Z,1.87
2018-05-07T22:16:57.331Z,2.43
2018-05-07T22:19:24.835Z,2.40
2018-05-07T22:21:52.715Z,2.10
2018-05-07T22:24:20.615Z,2.20
2018-05-07T22:26:48.109Z,2.10
2018-05-07T22:29:15.620Z,2.17
2018-05-07T22:31:43.133Z,1.97
2018-05-07T22:34:10.660Z,2.00
2018-05-07T22:36:38.147Z,2.17
2018-05-07T22:39:06.159Z,2.10
2018-05-07T22:41:33.588Z,1.90
2018-05-07T22:44:01.492Z,1.90
2018-05-07T22:46:29.007Z,2.10
2018-05-07T22:48:56.558Z,2.27
2018-05-07T22:51:24.028Z,2.30
2018-05-07T22:53:51.551Z,2.10
2018-05-07T22:56:19.437Z,2.27
2018-05-07T22:58:47.339Z,2.30
2018-05-07T23:01:14.837Z,2.33
2018-05-07T23:03:42.344Z,2.50
2018-05-07T23:06:09.839Z,2.10
2018-05-07T23:08:37.743Z,2.40
2018-05-07T23:11:05.231Z,2.13
2018-05-07T23:13:32.735Z,2.43
2018-05-07T23:16:00.218Z,2.33
2018-05-07T23:18:28.117Z,2.77
2018-05-07T23:20:55.615Z,2.70
2018-05-07T23:23:23.124Z,2.20
2018-05-07T23:25:50.619Z,2.60
2018-05-07T23:28:18.524Z,2.40
2018-05-07T23:30:46.020Z,2.10
2018-05-07T23:33:13.665Z,2.30
2018-05-07T23:35:41.151Z,2.50
2018-05-07T23:38:08.660Z,2.00
2018-05-07T23:40:36.156Z,2.80
2018-05-07T23:43:04.045Z,1.93
2018-05-07T23:45:31.952Z,2.40
2018-05-07T23:47:59.439Z,2.30
2018-05-07T23:50:26.951Z,2.20
2018-05-07T23:52:54.834Z,2.00
2018-05-07T23:55:22.734Z,2.23
2018-05-07T23:57:50.221Z,1.90
